createdAt,value
2023-05-05T00:00:20.380Z,332.81
2023-05-05T00:01:20.461Z,329.65
2023-05-05T00:02:20.502Z,328.78
2023-05-05T00:03:20.563Z,325.25
2023-05-05T00:04:20.677Z,327.68
2023-05-05T00:05:20.600Z,324.02
2023-05-05T00:06:20.638Z,326.97
2023-05-05T00:07:20.732Z,324.02
2023-05-05T00:08:21.029Z,317.25
2023-05-05T00:09:20.800Z,321.75
2023-05-05T00:10:20.864Z,316.27
2023-05-05T00:11:20.924Z,313.10
2023-05-05T00:12:20.961Z,315.01
2023-05-05T00:13:21.058Z,312.73
2023-05-05T00:14:21.086Z,312.33
2023-05-05T00:15:21.162Z,308.32
2023-05-05T00:16:21.223Z,308.10
2023-05-05T00:17:21.297Z,306.27
2023-05-05T00:18:21.336Z,305.98
2023-05-05T00:19:21.375Z,306.42
2023-05-05T00:20:21.434Z,299.36
2023-05-05T00:21:21.506Z,300.61
2023-05-05T00:22:21.604Z,300.47
2023-05-05T00:23:21.633Z,297.49
2023-05-05T00:24:21.636Z,298.30
2023-05-05T00:25:21.675Z,296.95
2023-05-05T00:26:21.775Z,292.56
2023-05-05T00:27:21.847Z,291.77
2023-05-05T00:28:21.857Z,287.47
2023-05-05T00:29:21.879Z,285.05
2023-05-05T00:30:21.934Z,287.53
2023-05-05T00:31:22.089Z,287.47
2023-05-05T00:32:22.039Z,287.30
2023-05-05T00:33:22.042Z,285.85
2023-05-05T00:34:22.157Z,283.25
2023-05-05T00:35:22.148Z,283.12
2023-05-05T00:36:22.232Z,285.49
2023-05-05T00:37:22.227Z,284.43
2023-05-05T00:38:22.345Z,280.59
2023-05-05T00:39:22.335Z,276.84
2023-05-05T00:40:22.383Z,274.03
2023-05-05T00:41:22.476Z,274.81
2023-05-05T00:42:22.488Z,271.71
2023-05-05T00:43:22.500Z,274.85
2023-05-05T00:44:22.593Z,273.54
2023-05-05T00:45:22.639Z,270.94
2023-05-05T00:46:22.725Z,272.47
2023-05-05T00:47:22.711Z,269.38
2023-05-05T00:48:22.764Z,267.55
2023-05-05T00:49:22.827Z,263.55
2023-05-05T00:50:22.869Z,264.98
2023-05-05T00:51:22.947Z,263.14
2023-05-05T00:52:22.944Z,258.62
2023-05-05T00:53:22.992Z,260.65
2023-05-05T00:54:23.057Z,258.11
2023-05-05T00:55:23.109Z,254.86
2023-05-05T00:56:23.111Z,259.42
2023-05-05T00:57:23.187Z,258.33
2023-05-05T00:58:23.236Z,255.49
2023-05-05T00:59:23.233Z,250.31
2023-05-05T01:00:23.328Z,251.13
2023-05-05T01:01:23.362Z,249.10
2023-05-05T01:02:23.417Z,250.50
2023-05-05T01:03:23.588Z,249.83
2023-05-05T01:04:23.572Z,250.20
2023-05-05T01:05:23.560Z,245.07
2023-05-05T01:06:23.685Z,244.43
2023-05-05T01:07:23.663Z,245.27
2023-05-05T01:08:23.672Z,242.43
2023-05-05T01:09:23.729Z,242.41
2023-05-05T01:10:23.939Z,239.46
2023-05-05T01:11:23.831Z,244.56
2023-05-05T01:12:23.905Z,239.30
2023-05-05T01:13:23.939Z,240.09
2023-05-05T01:14:23.973Z,237.73
2023-05-05T01:15:24.022Z,240.35
2023-05-05T01:16:24.114Z,235.92
2023-05-05T01:17:24.167Z,236.06
2023-05-05T01:18:24.150Z,234.73
2023-05-05T01:19:24.205Z,238.68
2023-05-05T01:20:24.266Z,230.20
2023-05-05T01:21:24.346Z,233.04
2023-05-05T01:22:24.339Z,231.27
2023-05-05T01:23:25.056Z,229.04
2023-05-05T01:24:24.336Z,227.05
2023-05-05T01:25:24.402Z,222.81
2023-05-05T01:26:24.433Z,226.09
2023-05-05T01:27:24.523Z,224.76
2023-05-05T01:28:24.667Z,222.13
2023-05-05T01:29:24.621Z,224.41
2023-05-05T01:30:24.690Z,219.72
2023-05-05T01:31:24.774Z,223.09
2023-05-05T01:32:24.771Z,218.57
2023-05-05T01:33:24.761Z,218.78
2023-05-05T01:34:24.873Z,219.90
2023-05-05T01:35:24.879Z,217.46
2023-05-05T01:36:24.937Z,216.46
2023-05-05T01:37:25.015Z,215.90
2023-05-05T01:38:24.949Z,215.32
2023-05-05T01:39:25.028Z,212.78
2023-05-05T01:40:25.043Z,213.96
2023-05-05T01:41:25.126Z,214.09
2023-05-05T01:42:25.138Z,213.07
2023-05-05T01:43:25.256Z,210.20
2023-05-05T01:44:25.292Z,209.01
2023-05-05T01:45:25.319Z,208.18
2023-05-05T01:46:25.469Z,208.69
2023-05-05T01:47:25.384Z,208.68
2023-05-05T01:48:25.410Z,207.71
2023-05-05T01:49:25.507Z,204.23
2023-05-05T01:50:25.576Z,201.24
2023-05-05T01:51:25.575Z,205.29
2023-05-05T01:52:25.640Z,204.17
2023-05-05T01:53:25.755Z,200.00
2023-05-05T01:54:25.786Z,200.91
2023-05-05T01:55:25.811Z,199.40
2023-05-05T01:56:25.927Z,197.15
2023-05-05T01:57:25.908Z,198.89
2023-05-05T01:58:25.964Z,200.36
2023-05-05T01:59:25.977Z,197.60
2023-05-05T02:00:26.069Z,197.92
2023-05-05T02:01:26.183Z,194.92
2023-05-05T02:02:26.118Z,193.68
2023-05-05T02:03:26.123Z,194.33
2023-05-05T02:04:26.148Z,191.42
2023-05-05T02:05:26.260Z,192.90
2023-05-05T02:06:26.246Z,193.21
2023-05-05T02:07:26.337Z,190.50
2023-05-05T02:08:26.497Z,190.53
2023-05-05T02:09:26.436Z,190.25
2023-05-05T02:10:26.486Z,192.22
2023-05-05T02:11:26.566Z,189.71
2023-05-05T02:12:26.553Z,190.02
2023-05-05T02:13:26.699Z,189.37
2023-05-05T02:14:26.692Z,184.40
2023-05-05T02:15:26.721Z,184.52
2023-05-05T02:16:26.798Z,186.32
2023-05-05T02:17:26.931Z,182.99
2023-05-05T02:18:26.813Z,182.23
2023-05-05T02:19:26.932Z,182.43
2023-05-05T02:20:26.945Z,179.83
2023-05-05T02:21:27.035Z,180.13
2023-05-05T02:22:27.086Z,184.28
2023-05-05T02:23:27.129Z,178.36
2023-05-05T02:24:27.170Z,178.79
2023-05-05T02:25:27.197Z,175.99
2023-05-05T02:26:27.279Z,178.48
2023-05-05T02:27:27.326Z,177.75
2023-05-05T02:28:27.386Z,177.97
2023-05-05T02:29:27.428Z,173.92
2023-05-05T02:30:27.463Z,172.95
2023-05-05T02:31:27.596Z,174.80
2023-05-05T02:32:27.677Z,172.16
2023-05-05T02:33:27.629Z,170.61
2023-05-05T02:34:27.643Z,172.09
2023-05-05T02:35:27.664Z,168.89
2023-05-05T02:36:27.710Z,169.24
2023-05-05T02:37:27.795Z,169.01
2023-05-05T02:38:27.892Z,168.17
2023-05-05T02:39:27.913Z,166.39
2023-05-05T02:40:27.878Z,166.75
2023-05-05T02:41:27.962Z,164.88
2023-05-05T02:42:28.061Z,164.56
2023-05-05T02:43:28.168Z,161.52
2023-05-05T02:44:28.129Z,165.47
2023-05-05T02:45:28.143Z,165.19
2023-05-05T02:46:28.258Z,163.94
2023-05-05T02:47:28.329Z,165.68
2023-05-05T02:48:28.351Z,164.13
2023-05-05T02:49:28.397Z,160.44
2023-05-05T02:50:28.413Z,162.45
2023-05-05T02:51:28.473Z,160.50
2023-05-05T02:52:28.522Z,158.22
2023-05-05T02:53:28.650Z,156.95
2023-05-05T02:54:28.654Z,158.18
2023-05-05T02:55:28.698Z,160.86
2023-05-05T02:56:28.811Z,157.22
2023-05-05T02:57:28.860Z,157.70
2023-05-05T02:58:28.985Z,157.19
2023-05-05T02:59:28.940Z,155.59
2023-05-05T03:00:28.972Z,153.90
2023-05-05T03:01:29.127Z,153.91
2023-05-05T03:02:29.200Z,154.17
2023-05-05T03:03:29.276Z,152.19
2023-05-05T03:04:29.219Z,154.33
2023-05-05T03:05:29.288Z,152.11
2023-05-05T03:06:29.393Z,149.69
2023-05-05T03:07:29.417Z,150.54
2023-05-05T03:08:29.469Z,152.00
2023-05-05T03:09:29.480Z,148.86
2023-05-05T03:10:29.517Z,149.89
2023-05-05T03:11:29.624Z,147.71
2023-05-05T03:12:29.673Z,148.37
2023-05-05T03:13:29.751Z,148.25
2023-05-05T03:14:32.100Z,146.88
2023-05-05T03:15:29.761Z,150.86
2023-05-05T03:16:29.881Z,145.21
2023-05-05T03:17:29.714Z,146.86
2023-05-05T03:18:29.831Z,142.78
2023-05-05T03:19:29.717Z,143.47
2023-05-05T03:20:29.704Z,141.01
2023-05-05T03:21:29.739Z,143.26
2023-05-05T03:22:29.683Z,140.13
2023-05-05T03:23:29.700Z,141.56
2023-05-05T03:24:29.728Z,141.11
2023-05-05T03:25:29.719Z,140.26
2023-05-05T03:26:29.669Z,139.56
2023-05-05T03:27:29.736Z,137.85
2023-05-05T03:28:29.669Z,137.67
2023-05-05T03:29:29.638Z,140.40
2023-05-05T03:30:29.648Z,138.38
2023-05-05T03:31:29.677Z,136.76
2023-05-05T03:32:29.633Z,137.05
2023-05-05T03:33:29.671Z,135.89
2023-05-05T03:35:32.434Z,0.50
2023-05-05T03:36:32.417Z,0.50
2023-05-05T03:37:32.432Z,0.50
2023-05-05T03:38:32.455Z,0.50
2023-05-05T03:39:32.382Z,0.50
2023-05-05T03:40:43.088Z,0.50
2023-05-05T03:41:33.419Z,0.50
2023-05-05T03:42:32.384Z,0.50
2023-05-05T03:43:32.380Z,0.50
2023-05-05T03:44:32.377Z,0.49
2023-05-05T03:45:32.446Z,0.49
2023-05-05T03:46:32.356Z,0.50
2023-05-05T03:47:32.442Z,0.51
2023-05-05T03:48:32.353Z,0.51
2023-05-05T03:49:32.335Z,0.51
2023-05-05T03:50:32.376Z,0.51
2023-05-05T03:51:32.422Z,0.50
2023-05-05T03:52:32.454Z,0.51
2023-05-05T03:53:32.543Z,0.51
2023-05-05T03:54:32.608Z,0.52
2023-05-05T03:55:32.675Z,0.52
2023-05-05T03:56:32.696Z,0.51
2023-05-05T03:57:32.791Z,0.51
2023-05-05T03:58:32.843Z,0.51
2023-05-05T03:59:32.915Z,0.50
2023-05-05T04:00:32.978Z,0.51
2023-05-05T04:01:33.038Z,0.51
2023-05-05T04:02:33.166Z,0.52
2023-05-05T04:03:33.231Z,0.50
2023-05-05T04:04:33.247Z,0.51
2023-05-05T04:05:33.237Z,0.50
2023-05-05T04:06:33.278Z,0.50
2023-05-05T04:07:33.321Z,0.50
2023-05-05T04:08:33.346Z,0.50
2023-05-05T04:09:33.338Z,0.50
2023-05-05T04:10:33.342Z,0.50
2023-05-05T04:11:33.325Z,0.50
2023-05-05T04:12:33.334Z,0.50
2023-05-05T04:13:33.364Z,0.50
2023-05-05T04:14:33.428Z,0.50
2023-05-05T04:15:33.352Z,0.50
2023-05-05T04:16:33.412Z,0.50
2023-05-05T04:17:33.434Z,0.50
2023-05-05T04:18:33.496Z,0.50
2023-05-05T04:19:33.565Z,0.50
2023-05-05T04:20:33.595Z,0.50
2023-05-05T04:21:33.658Z,0.50
2023-05-05T04:22:33.820Z,0.51
2023-05-05T04:23:33.744Z,0.50
2023-05-05T04:24:33.813Z,0.50
2023-05-05T04:25:33.837Z,0.51
2023-05-05T04:26:33.859Z,0.50
2023-05-05T04:27:33.907Z,0.50
2023-05-05T04:28:33.872Z,0.51
2023-05-05T04:29:33.932Z,0.51
2023-05-05T04:30:33.885Z,0.50
2023-05-05T04:31:33.940Z,0.52
2023-05-05T04:32:33.975Z,0.51
2023-05-05T04:33:33.998Z,0.50
2023-05-05T04:34:33.938Z,0.52
2023-05-05T04:35:33.996Z,0.52
2023-05-05T04:36:33.983Z,0.51
2023-05-05T04:37:34.022Z,0.50
2023-05-05T04:38:34.078Z,0.50
2023-05-05T04:39:34.087Z,0.50
2023-05-05T04:40:34.137Z,0.51
2023-05-05T04:41:34.210Z,0.51
2023-05-05T04:42:34.217Z,0.51
2023-05-05T04:43:34.240Z,0.51
2023-05-05T04:44:34.276Z,0.51
2023-05-05T04:45:34.306Z,0.50
2023-05-05T04:46:34.390Z,0.50
2023-05-05T04:47:34.378Z,0.51
2023-05-05T04:48:34.506Z,0.51
2023-05-05T04:49:34.427Z,0.52
2023-05-05T04:50:34.506Z,0.53
2023-05-05T04:51:34.497Z,0.53
2023-05-05T04:52:34.537Z,0.54
2023-05-05T04:53:34.564Z,0.53
2023-05-05T04:54:34.623Z,0.54
2023-05-05T04:55:34.614Z,0.55
2023-05-05T04:56:34.645Z,0.56
2023-05-05T04:57:34.733Z,0.56
2023-05-05T04:58:34.746Z,0.57
2023-05-05T04:59:34.753Z,0.56
2023-05-05T05:00:34.820Z,0.56
2023-05-05T05:01:36.881Z,0.56
2023-05-05T05:02:34.823Z,0.58
2023-05-05T05:03:34.966Z,0.57
2023-05-05T05:04:34.779Z,0.56
2023-05-05T05:05:34.811Z,0.56
2023-05-05T05:06:34.789Z,0.55
2023-05-05T05:07:34.798Z,0.55
2023-05-05T05:08:34.818Z,0.54
2023-05-05T05:09:34.753Z,0.54
2023-05-05T05:10:34.794Z,0.54
2023-05-05T05:11:34.748Z,0.54
2023-05-05T05:12:34.786Z,0.53
2023-05-05T05:13:34.744Z,0.54
2023-05-05T05:14:34.746Z,0.53
2023-05-05T05:15:34.716Z,0.52
2023-05-05T05:16:34.784Z,0.52
2023-05-05T05:17:34.709Z,0.51
2023-05-05T05:18:34.743Z,0.51
2023-05-05T05:19:34.701Z,0.50
2023-05-05T05:20:34.695Z,0.50
2023-05-05T05:21:34.696Z,0.50
2023-05-05T05:22:34.656Z,0.50
2023-05-05T05:23:34.717Z,0.50
2023-05-05T05:24:34.652Z,0.51
2023-05-05T05:25:34.658Z,0.51
2023-05-05T05:26:34.675Z,0.50
2023-05-05T05:27:34.656Z,0.51
2023-05-05T05:28:34.649Z,0.51
2023-05-05T05:29:34.675Z,0.51
2023-05-05T05:30:34.656Z,0.51
2023-05-05T05:31:34.713Z,0.51
2023-05-05T05:32:34.722Z,0.52
2023-05-05T05:33:34.613Z,0.52
2023-05-05T05:34:34.682Z,0.52
2023-05-05T05:35:34.711Z,0.54
2023-05-05T05:36:34.709Z,0.54
2023-05-05T05:37:34.624Z,0.53
2023-05-05T05:38:34.589Z,0.52
2023-05-05T05:39:34.596Z,0.52
2023-05-05T05:40:34.568Z,0.52
2023-05-05T05:41:34.538Z,0.51
2023-05-05T05:42:34.533Z,0.53
2023-05-05T05:43:34.523Z,0.53
2023-05-05T05:44:34.678Z,0.54
2023-05-05T05:45:34.545Z,0.52
2023-05-05T05:46:34.560Z,0.51
2023-05-05T05:47:34.559Z,0.52
2023-05-05T05:48:34.630Z,0.55
2023-05-05T05:49:34.725Z,0.59
2023-05-05T05:50:34.558Z,0.58
2023-05-05T05:51:34.595Z,0.59
2023-05-05T05:52:34.568Z,0.61
2023-05-05T05:53:34.600Z,0.61
2023-05-05T05:54:34.791Z,0.61
2023-05-05T05:55:34.731Z,0.62
2023-05-05T05:56:34.649Z,0.62
2023-05-05T05:57:35.187Z,0.63
2023-05-05T05:58:34.753Z,0.64
2023-05-05T05:59:34.717Z,0.64
2023-05-05T06:00:34.738Z,0.64
2023-05-05T06:01:34.748Z,0.66
2023-05-05T06:02:35.561Z,0.68
2023-05-05T06:03:34.906Z,0.69
2023-05-05T06:04:34.863Z,0.69
2023-05-05T06:05:34.819Z,0.69
2023-05-05T06:06:34.854Z,0.71
2023-05-05T06:07:34.896Z,0.72
2023-05-05T06:08:35.658Z,0.74
2023-05-05T06:09:34.855Z,0.76
2023-05-05T06:10:35.338Z,0.76
2023-05-05T06:11:34.967Z,0.76
2023-05-05T06:12:34.955Z,0.79
2023-05-05T06:13:35.178Z,0.81
2023-05-05T06:14:34.921Z,0.83
2023-05-05T06:15:34.973Z,0.84
2023-05-05T06:16:35.016Z,0.86
2023-05-05T06:17:34.932Z,0.84
2023-05-05T06:18:35.172Z,0.86
2023-05-05T06:19:34.949Z,0.88
2023-05-05T06:20:34.982Z,0.88
2023-05-05T06:21:35.044Z,0.88
2023-05-05T06:22:34.993Z,0.89
2023-05-05T06:23:35.009Z,0.91
2023-05-05T06:24:34.983Z,0.90
2023-05-05T06:25:35.019Z,0.96
2023-05-05T06:26:35.016Z,1.02
2023-05-05T06:27:35.027Z,1.06
2023-05-05T06:28:35.168Z,1.03
2023-05-05T06:29:35.051Z,1.01
2023-05-05T06:30:35.067Z,1.01
2023-05-05T06:31:35.086Z,1.01
2023-05-05T06:32:35.044Z,0.99
2023-05-05T06:33:35.081Z,1.00
2023-05-05T06:34:35.101Z,1.04
2023-05-05T06:35:35.202Z,1.08
2023-05-05T06:36:35.242Z,1.08
2023-05-05T06:37:35.166Z,1.08
2023-05-05T06:38:35.171Z,1.04
2023-05-05T06:39:35.215Z,1.07
2023-05-05T06:40:35.742Z,1.08
2023-05-05T06:41:35.190Z,1.08
2023-05-05T06:42:35.166Z,1.07
2023-05-05T06:43:35.181Z,1.04
2023-05-05T06:44:35.163Z,1.06
2023-05-05T06:45:35.167Z,1.05
2023-05-05T06:46:35.260Z,0.98
2023-05-05T06:47:35.214Z,0.95
2023-05-05T06:48:35.178Z,0.91
2023-05-05T06:49:35.186Z,0.87
2023-05-05T06:50:35.197Z,0.88
2023-05-05T06:51:35.170Z,0.86
2023-05-05T06:52:35.264Z,0.83
2023-05-05T06:53:35.693Z,0.77
2023-05-05T06:54:35.728Z,0.76
2023-05-05T06:55:35.244Z,0.83
2023-05-05T06:56:35.749Z,0.91
2023-05-05T06:57:35.237Z,0.97
2023-05-05T06:58:35.708Z,1.01
2023-05-05T06:59:35.523Z,1.02
2023-05-05T07:00:35.339Z,1.00
2023-05-05T07:01:35.324Z,0.99
2023-05-05T07:02:35.373Z,1.00
2023-05-05T07:03:35.395Z,1.06
2023-05-05T07:04:35.728Z,1.17
2023-05-05T07:05:35.352Z,1.14
2023-05-05T07:06:35.367Z,1.12
2023-05-05T07:07:35.423Z,1.08
2023-05-05T07:08:35.740Z,1.05
2023-05-05T07:09:35.498Z,1.02
2023-05-05T07:10:35.509Z,1.01
2023-05-05T07:11:35.570Z,1.05
2023-05-05T07:12:35.569Z,1.06
2023-05-05T07:13:35.704Z,1.03
2023-05-05T07:14:35.663Z,1.06
2023-05-05T07:15:35.719Z,1.05
2023-05-05T07:16:35.756Z,1.00
2023-05-05T07:17:35.827Z,1.03
2023-05-05T07:18:35.838Z,1.03
2023-05-05T07:19:35.872Z,1.01
2023-05-05T07:20:35.955Z,1.02
2023-05-05T07:21:36.031Z,1.13
2023-05-05T07:22:36.074Z,1.13
2023-05-05T07:23:36.368Z,1.11
2023-05-05T07:24:36.289Z,1.09
2023-05-05T07:25:36.196Z,1.05
2023-05-05T07:26:36.197Z,1.04
2023-05-05T07:27:36.283Z,1.10
2023-05-05T07:28:36.281Z,1.10
2023-05-05T07:29:36.409Z,1.05
2023-05-05T07:30:36.404Z,1.06
2023-05-05T07:31:36.851Z,1.07
2023-05-05T07:32:36.586Z,1.12
2023-05-05T07:33:36.562Z,1.06
2023-05-05T07:34:36.577Z,1.06
2023-05-05T07:35:36.746Z,0.93
2023-05-05T07:36:36.568Z,0.89
2023-05-05T07:37:36.577Z,0.86
2023-05-05T07:38:36.803Z,0.92
2023-05-05T07:39:36.766Z,0.92
2023-05-05T07:40:36.794Z,0.85
2023-05-05T07:41:36.608Z,0.80
2023-05-05T07:42:36.699Z,0.76
2023-05-05T07:43:38.313Z,0.69
2023-05-05T07:44:37.292Z,0.62
2023-05-05T07:45:36.886Z,0.61
2023-05-05T07:46:37.006Z,0.63
2023-05-05T07:47:36.978Z,0.63
2023-05-05T07:48:36.930Z,0.59
2023-05-05T07:49:36.890Z,0.56
2023-05-05T07:50:37.200Z,0.51
2023-05-05T07:51:36.920Z,0.51
2023-05-05T07:52:45.222Z,0.51
2023-05-05T07:53:37.889Z,0.51
2023-05-05T07:54:36.927Z,0.51
2023-05-05T07:55:37.219Z,0.52
2023-05-05T07:56:36.917Z,0.53
2023-05-05T07:57:36.909Z,0.49
2023-05-05T07:58:36.904Z,0.50
2023-05-05T07:59:36.823Z,0.53
2023-05-05T08:00:37.278Z,0.55
2023-05-05T08:01:36.842Z,0.51
2023-05-05T08:02:36.996Z,0.50
2023-05-05T08:03:37.273Z,0.50
2023-05-05T08:04:37.050Z,0.53
2023-05-05T08:05:37.063Z,0.56
2023-05-05T08:06:37.094Z,0.54
2023-05-05T08:07:37.163Z,0.49
2023-05-05T08:08:37.220Z,0.55
2023-05-05T08:09:37.285Z,0.50
2023-05-05T08:10:37.317Z,0.57
2023-05-05T08:11:37.396Z,0.51
2023-05-05T08:12:37.505Z,0.57
2023-05-05T08:13:37.465Z,0.54
2023-05-05T08:14:37.518Z,0.50
2023-05-05T08:15:37.657Z,0.53
2023-05-05T08:16:37.680Z,0.47
2023-05-05T08:17:37.803Z,0.47
2023-05-05T08:18:37.779Z,0.53
2023-05-05T08:19:37.868Z,0.50
2023-05-05T08:20:38.279Z,0.57
2023-05-05T08:21:37.835Z,0.51
2023-05-05T08:22:37.821Z,0.55
2023-05-05T08:23:37.998Z,0.56
2023-05-05T08:24:37.944Z,0.55
2023-05-05T08:25:38.014Z,0.54
2023-05-05T08:26:38.047Z,0.68
2023-05-05T08:27:38.160Z,0.72
2023-05-05T08:28:38.168Z,0.78
2023-05-05T08:29:38.248Z,0.85
2023-05-05T08:30:38.287Z,0.91
2023-05-05T08:31:38.438Z,0.94
2023-05-05T08:32:38.505Z,0.96
2023-05-05T08:33:38.475Z,0.93
2023-05-05T08:34:38.592Z,0.83
2023-05-05T08:35:38.606Z,0.84
2023-05-05T08:36:38.544Z,0.78
2023-05-05T08:37:38.820Z,0.75
2023-05-05T08:38:38.656Z,0.77
2023-05-05T08:39:39.297Z,0.62
2023-05-05T08:40:38.737Z,0.59
2023-05-05T08:41:38.732Z,0.64
2023-05-05T08:42:39.721Z,0.61
2023-05-05T08:43:38.696Z,0.54
2023-05-05T08:44:38.702Z,0.56
2023-05-05T08:45:38.702Z,0.58
2023-05-05T08:46:39.304Z,0.53
2023-05-05T08:47:39.030Z,0.52
2023-05-05T08:48:38.821Z,0.66
2023-05-05T08:49:38.841Z,0.66
2023-05-05T08:50:38.892Z,0.57
2023-05-05T08:51:38.943Z,0.55
2023-05-05T08:52:38.956Z,0.49
2023-05-05T08:53:39.003Z,0.51
2023-05-05T08:54:39.268Z,0.60
2023-05-05T08:55:39.136Z,0.50
2023-05-05T08:56:39.197Z,0.60
2023-05-05T08:57:39.269Z,0.54
2023-05-05T08:58:39.294Z,0.51
2023-05-05T08:59:39.373Z,0.52
2023-05-05T09:00:39.424Z,0.50
2023-05-05T09:01:39.500Z,0.56
2023-05-05T09:02:39.604Z,0.52
2023-05-05T09:03:39.648Z,0.50
2023-05-05T09:04:39.763Z,0.52
2023-05-05T09:05:39.738Z,0.50
2023-05-05T09:06:39.744Z,0.51
2023-05-05T09:07:39.998Z,0.59
2023-05-05T09:08:39.908Z,0.52
2023-05-05T09:09:39.945Z,0.56
2023-05-05T09:10:39.990Z,0.51
2023-05-05T09:11:39.998Z,0.55
2023-05-05T09:12:40.407Z,0.50
2023-05-05T09:13:40.294Z,0.51
2023-05-05T09:14:40.026Z,0.50
2023-05-05T09:15:40.094Z,0.50
2023-05-05T09:16:40.272Z,0.51
2023-05-05T09:17:40.230Z,0.55
2023-05-05T09:18:40.233Z,0.46
2023-05-05T09:19:40.767Z,0.52
2023-05-05T09:20:40.350Z,0.50
2023-05-05T09:21:40.438Z,0.51
2023-05-05T09:22:40.522Z,0.49
2023-05-05T09:23:40.816Z,0.53
2023-05-05T09:24:40.616Z,0.52
2023-05-05T09:25:40.684Z,0.52
2023-05-05T09:26:40.737Z,0.55
2023-05-05T09:27:40.802Z,0.60
2023-05-05T09:28:41.246Z,0.59
2023-05-05T09:29:40.848Z,0.72
2023-05-05T09:30:41.325Z,0.90
2023-05-05T09:31:41.255Z,1.08
2023-05-05T09:32:40.991Z,0.92
2023-05-05T09:33:41.051Z,1.09
2023-05-05T09:34:41.060Z,1.13
2023-05-05T09:35:41.152Z,1.02
2023-05-05T09:36:41.330Z,1.03
2023-05-05T09:37:41.242Z,0.90
2023-05-05T09:38:41.296Z,0.84
2023-05-05T09:39:41.419Z,0.60
2023-05-05T09:40:41.330Z,0.56
2023-05-05T09:41:41.415Z,0.58
2023-05-05T09:42:41.444Z,0.65
2023-05-05T09:43:41.845Z,0.72
2023-05-05T09:44:41.449Z,0.50
2023-05-05T09:45:41.465Z,0.50
2023-05-05T09:46:43.375Z,0.37
2023-05-05T09:47:41.561Z,0.34
2023-05-05T09:48:41.800Z,0.49
2023-05-05T09:49:41.594Z,0.40
2023-05-05T09:50:41.627Z,0.50
2023-05-05T09:51:41.655Z,0.64
2023-05-05T09:52:41.688Z,0.39
2023-05-05T09:53:41.813Z,0.55
2023-05-05T09:54:41.737Z,0.94
2023-05-05T09:55:41.853Z,1.07
2023-05-05T09:56:41.817Z,0.95
2023-05-05T09:57:41.847Z,0.93
2023-05-05T09:58:41.941Z,1.19
2023-05-05T09:59:42.267Z,1.09
2023-05-05T10:00:41.956Z,1.12
2023-05-05T10:01:42.013Z,1.48
2023-05-05T10:02:42.191Z,1.83
2023-05-05T10:03:42.080Z,1.73
2023-05-05T10:04:42.165Z,1.53
2023-05-05T10:05:42.113Z,1.92
2023-05-05T10:06:42.193Z,2.44
2023-05-05T10:07:42.255Z,2.06
2023-05-05T10:08:42.266Z,3.36
2023-05-05T10:09:42.419Z,3.77
2023-05-05T10:10:42.375Z,4.99
2023-05-05T10:11:42.537Z,5.44
2023-05-05T10:12:42.820Z,5.84
2023-05-05T10:13:42.571Z,6.28
2023-05-05T10:14:42.620Z,4.77
2023-05-05T10:15:43.310Z,5.85
2023-05-05T10:16:42.828Z,7.34
2023-05-05T10:17:53.914Z,5.32
2023-05-05T10:18:43.661Z,5.32
2023-05-05T10:19:42.630Z,5.41
2023-05-05T10:20:42.618Z,5.76
2023-05-05T10:21:42.625Z,7.02
2023-05-05T10:22:42.595Z,9.38
2023-05-05T10:23:42.616Z,7.98
2023-05-05T10:24:42.609Z,7.11
2023-05-05T10:25:42.570Z,7.40
2023-05-05T10:26:43.303Z,8.46
2023-05-05T10:27:42.691Z,6.45
2023-05-05T10:28:42.567Z,3.72
2023-05-05T10:29:42.580Z,3.19
2023-05-05T10:30:42.572Z,3.57
2023-05-05T10:31:42.569Z,3.26
2023-05-05T10:33:42.638Z,2.10
2023-05-05T10:34:42.565Z,1.55
2023-05-05T10:35:42.570Z,2.00
2023-05-05T10:36:42.566Z,2.86
2023-05-05T10:37:42.812Z,3.79
2023-05-05T10:38:42.526Z,3.80
2023-05-05T10:39:42.481Z,2.98
2023-05-05T10:40:42.524Z,2.97
2023-05-05T10:41:42.784Z,4.62
2023-05-05T10:42:42.486Z,5.61
2023-05-05T10:43:42.545Z,6.52
2023-05-05T10:44:42.528Z,6.47
2023-05-05T10:45:42.584Z,7.20
2023-05-05T10:46:42.586Z,7.36
2023-05-05T10:47:42.518Z,8.39
2023-05-05T10:48:43.328Z,8.48
2023-05-05T10:49:43.290Z,7.05
2023-05-05T10:50:42.427Z,7.04
2023-05-05T10:51:42.804Z,7.34
2023-05-05T10:52:42.814Z,6.90
2023-05-05T10:53:43.309Z,7.93
2023-05-05T10:54:42.430Z,9.34
2023-05-05T10:55:42.844Z,9.79
2023-05-05T10:56:42.444Z,8.61
2023-05-05T10:57:42.383Z,10.80
2023-05-05T10:58:58.344Z,9.18
2023-05-05T10:59:43.570Z,9.25
2023-05-05T11:00:42.383Z,9.67
2023-05-05T11:01:42.396Z,9.83
2023-05-05T11:02:42.914Z,10.15
2023-05-05T11:03:42.408Z,12.89
2023-05-05T11:04:42.320Z,14.94
2023-05-05T11:05:42.356Z,12.47
2023-05-05T11:06:42.816Z,17.33
2023-05-05T11:07:42.371Z,19.10
2023-05-05T11:08:42.303Z,8.68
2023-05-05T11:09:42.324Z,7.90
2023-05-05T11:10:42.443Z,8.13
2023-05-05T11:11:42.326Z,4.80
2023-05-05T11:12:42.459Z,2.77
2023-05-05T11:13:42.314Z,2.38
2023-05-05T11:14:42.249Z,0.90
2023-05-05T11:15:42.373Z,0.96
2023-05-05T11:16:42.293Z,1.11
2023-05-05T11:17:42.279Z,1.14
2023-05-05T11:18:42.307Z,1.69
2023-05-05T11:19:42.298Z,2.69
2023-05-05T11:20:42.303Z,3.44
2023-05-05T11:21:42.338Z,4.25
2023-05-05T11:22:42.375Z,5.42
2023-05-05T11:23:42.301Z,5.91
2023-05-05T11:24:42.366Z,5.58
2023-05-05T11:25:42.385Z,5.56
2023-05-05T11:26:42.384Z,6.72
2023-05-05T11:27:42.366Z,7.07
2023-05-05T11:28:42.377Z,6.24
2023-05-05T11:29:42.524Z,6.52
2023-05-05T11:30:42.438Z,6.02
2023-05-05T11:31:42.591Z,6.22
2023-05-05T11:32:42.511Z,6.18
2023-05-05T11:33:42.436Z,6.27
2023-05-05T11:34:42.522Z,5.63
2023-05-05T11:35:42.497Z,5.85
2023-05-05T11:36:42.523Z,5.54
2023-05-05T11:37:42.468Z,5.63
2023-05-05T11:38:42.517Z,5.56
2023-05-05T11:39:42.533Z,5.58
2023-05-05T11:40:42.536Z,5.36
2023-05-05T11:41:42.531Z,5.06
2023-05-05T11:42:42.538Z,4.86
2023-05-05T11:43:42.566Z,4.42
2023-05-05T11:44:42.598Z,4.69
2023-05-05T11:45:42.591Z,4.53
2023-05-05T11:46:42.689Z,4.56
2023-05-05T11:47:42.918Z,4.50
2023-05-05T11:48:42.618Z,4.41
2023-05-05T11:49:42.613Z,4.51
2023-05-05T11:50:42.622Z,4.31
2023-05-05T11:51:42.706Z,3.74
2023-05-05T11:52:42.671Z,3.84
2023-05-05T11:53:42.684Z,3.75
2023-05-05T11:54:42.725Z,3.61
2023-05-05T11:55:42.753Z,3.77
2023-05-05T11:56:42.807Z,3.20
2023-05-05T11:57:42.777Z,3.10
2023-05-05T11:58:42.792Z,3.29
2023-05-05T11:59:42.866Z,4.43
2023-05-05T12:00:42.943Z,7.34
2023-05-05T12:01:42.849Z,8.61
2023-05-05T12:02:42.949Z,8.61
2023-05-05T12:03:43.056Z,9.43
2023-05-05T12:04:42.983Z,11.32
2023-05-05T12:05:42.968Z,11.73
2023-05-05T12:06:42.953Z,13.14
2023-05-05T12:07:43.033Z,14.84
2023-05-05T12:08:42.992Z,16.80
2023-05-05T12:09:43.045Z,18.47
2023-05-05T12:10:43.097Z,18.62
2023-05-05T12:11:43.092Z,20.03
2023-05-05T12:12:43.215Z,20.82
2023-05-05T12:13:43.119Z,21.76
2023-05-05T12:14:43.169Z,21.23
2023-05-05T12:15:43.180Z,21.06
2023-05-05T12:16:43.299Z,19.54
2023-05-05T12:17:43.333Z,21.90
2023-05-05T12:18:43.274Z,22.06
2023-05-05T12:19:43.340Z,23.41
2023-05-05T12:20:43.325Z,22.21
2023-05-05T12:21:43.354Z,24.09
2023-05-05T12:22:43.432Z,25.45
2023-05-05T12:23:43.444Z,24.38
2023-05-05T12:24:43.452Z,24.49
2023-05-05T12:25:43.494Z,23.68
2023-05-05T12:26:43.516Z,24.09
2023-05-05T12:27:43.561Z,21.69
2023-05-05T12:28:43.577Z,22.78
2023-05-05T12:29:43.588Z,23.83
2023-05-05T12:30:43.637Z,22.27
2023-05-05T12:31:43.673Z,23.74
2023-05-05T12:32:43.805Z,25.96
2023-05-05T12:33:43.728Z,26.36
2023-05-05T12:34:43.699Z,26.24
2023-05-05T12:35:43.918Z,26.14
2023-05-05T12:36:43.849Z,24.94
2023-05-05T12:37:43.809Z,27.15
2023-05-05T12:38:43.857Z,28.65
2023-05-05T12:39:43.888Z,27.12
2023-05-05T12:40:43.921Z,27.82
2023-05-05T12:41:43.957Z,27.97
2023-05-05T12:42:45.785Z,29.49
2023-05-05T12:43:44.003Z,27.16
2023-05-05T12:44:44.054Z,26.28
2023-05-05T12:45:44.068Z,27.36
2023-05-05T12:46:44.135Z,28.67
2023-05-05T12:47:44.178Z,29.72
2023-05-05T12:48:47.277Z,28.56
2023-05-05T12:49:44.187Z,26.27
2023-05-05T12:50:44.140Z,26.27
2023-05-05T12:51:44.262Z,27.71
2023-05-05T12:52:44.166Z,27.90
2023-05-05T12:53:44.119Z,29.41
2023-05-05T12:54:44.124Z,29.65
2023-05-05T12:55:44.184Z,29.76
2023-05-05T12:56:44.106Z,29.64
2023-05-05T12:57:44.087Z,30.37
2023-05-05T12:58:44.095Z,28.96
2023-05-05T12:59:44.088Z,29.21
2023-05-05T13:00:44.149Z,28.85
2023-05-05T13:01:44.085Z,27.89
2023-05-05T13:02:44.078Z,28.75
2023-05-05T13:03:44.036Z,28.61